createdAt,value
2019-02-12T00:00:06.448Z,2.30
2019-02-12T00:02:34.957Z,2.40
2019-02-12T00:05:03.701Z,2.40
2019-02-12T00:07:32.260Z,2.40
2019-02-12T00:10:00.768Z,2.30
2019-02-12T00:12:30.900Z,2.30
2019-02-12T00:14:59.594Z,2.30
2019-02-12T00:17:28.101Z,2.30
2019-02-12T00:19:56.624Z,2.20
2019-02-12T00:22:25.198Z,2.20
2019-02-12T00:24:53.822Z,2.20
2019-02-12T00:27:22.283Z,2.20
2019-02-12T00:29:50.757Z,2.30
2019-02-12T00:32:19.404Z,2.30
2019-02-12T00:34:48.109Z,2.30
2019-02-12T00:37:16.952Z,2.20
2019-02-12T00:39:45.516Z,2.20
2019-02-12T00:42:13.985Z,2.20
2019-02-12T00:44:42.448Z,2.20
2019-02-12T00:47:10.959Z,2.20
2019-02-12T00:49:39.427Z,2.20
2019-02-12T00:52:07.894Z,2.20
2019-02-12T00:54:36.387Z,2.20
2019-02-12T00:57:04.968Z,2.20
2019-02-12T00:59:33.440Z,2.20
2019-02-12T01:02:01.929Z,2.20
2019-02-12T01:04:30.481Z,2.20
2019-02-12T01:06:58.955Z,2.20
2019-02-12T01:09:27.482Z,2.20
2019-02-12T01:11:56.000Z,2.20
2019-02-12T01:14:24.566Z,2.10
2019-02-12T01:16:53.222Z,1.90
2019-02-12T01:19:21.680Z,1.80
2019-02-12T01:21:50.165Z,1.80
2019-02-12T01:24:18.648Z,1.90
2019-02-12T01:26:47.120Z,1.90
2019-02-12T01:29:15.752Z,1.90
2019-02-12T01:31:44.294Z,1.90
2019-02-12T01:34:12.841Z,1.90
2019-02-12T01:36:41.372Z,1.90
2019-02-12T01:39:12.077Z,1.90
2019-02-12T01:41:40.600Z,1.90
2019-02-12T01:44:09.143Z,1.90
2019-02-12T01:46:37.722Z,1.80
2019-02-12T01:49:06.279Z,1.80
2019-02-12T01:51:35.358Z,1.80
2019-02-12T01:54:04.016Z,1.80
2019-02-12T01:56:32.562Z,1.80
2019-02-12T01:59:01.060Z,1.80
2019-02-12T02:01:29.690Z,1.80
2019-02-12T02:03:58.164Z,1.80
2019-02-12T02:06:26.635Z,1.80
2019-02-12T02:08:55.205Z,1.80
2019-02-12T02:11:23.664Z,1.80
2019-02-12T02:13:52.116Z,1.80
2019-02-12T02:16:20.613Z,1.80
2019-02-12T02:18:49.097Z,1.70
2019-02-12T02:21:17.657Z,1.80
2019-02-12T02:23:46.323Z,1.70
2019-02-12T02:26:14.784Z,1.70
2019-02-12T02:28:43.590Z,1.80
2019-02-12T02:31:12.107Z,1.80
2019-02-12T02:33:40.672Z,1.80
2019-02-12T02:36:09.168Z,1.80
2019-02-12T02:38:37.726Z,1.70
2019-02-12T02:41:06.298Z,1.70
2019-02-12T02:43:34.794Z,1.70
2019-02-12T02:46:03.268Z,1.70
2019-02-12T02:48:31.766Z,1.70
2019-02-12T02:51:00.250Z,1.70
2019-02-12T02:53:30.309Z,1.70
2019-02-12T02:55:59.414Z,1.60
2019-02-12T02:58:27.964Z,1.60
2019-02-12T03:00:56.424Z,1.60
2019-02-12T03:03:24.941Z,1.60
2019-02-12T03:05:53.463Z,1.60
2019-02-12T03:08:22.046Z,1.60
2019-02-12T03:10:52.252Z,1.60
2019-02-12T03:13:20.907Z,1.60
2019-02-12T03:15:49.441Z,1.60
2019-02-12T03:18:17.963Z,1.60
2019-02-12T03:20:46.566Z,1.60
2019-02-12T03:23:15.107Z,1.60
2019-02-12T03:25:43.733Z,1.60
2019-02-12T03:28:12.237Z,1.60
2019-02-12T03:30:40.695Z,1.60
2019-02-12T03:33:09.593Z,1.50
2019-02-12T03:35:38.134Z,1.50
2019-02-12T03:38:06.725Z,1.50
2019-02-12T03:40:35.421Z,1.50
2019-02-12T03:43:03.976Z,1.50
2019-02-12T03:45:32.439Z,1.50
2019-02-12T03:48:01.077Z,1.50
2019-02-12T03:50:29.609Z,1.50
2019-02-12T03:52:58.084Z,1.60
2019-02-12T03:55:26.641Z,1.50
2019-02-12T03:57:55.101Z,1.50
2019-02-12T04:00:23.677Z,1.50
2019-02-12T04:03:05.420Z,1.50
2019-02-12T04:05:35.345Z,1.50
2019-02-12T04:08:04.059Z,1.50
2019-02-12T04:10:32.814Z,1.50
2019-02-12T04:13:01.412Z,1.50
2019-02-12T04:15:29.878Z,1.50
2019-02-12T04:17:58.370Z,1.40
2019-02-12T04:20:26.909Z,1.40
2019-02-12T04:22:55.375Z,1.40
2019-02-12T04:25:23.895Z,1.50
2019-02-12T04:27:52.356Z,1.50
2019-02-12T04:30:20.834Z,1.50
2019-02-12T04:32:49.401Z,1.40
2019-02-12T04:35:17.849Z,1.40
2019-02-12T04:37:46.316Z,1.40
2019-02-12T04:40:14.856Z,1.40
2019-02-12T04:42:43.348Z,1.40
2019-02-12T04:45:12.081Z,1.40
2019-02-12T04:47:40.672Z,1.40
2019-02-12T04:50:14.171Z,1.40
2019-02-12T04:52:42.730Z,1.40
2019-02-12T04:55:12.168Z,1.40
2019-02-12T04:57:40.632Z,1.50
2019-02-12T05:00:12.643Z,1.50
2019-02-12T05:02:41.118Z,1.40
2019-02-12T05:05:10.694Z,1.30
2019-02-12T05:07:39.207Z,1.30
2019-02-12T05:10:10.499Z,1.30
2019-02-12T05:12:38.961Z,1.40
2019-02-12T05:15:09.357Z,1.40
2019-02-12T05:17:37.840Z,1.50
2019-02-12T05:20:15.522Z,1.60
2019-02-12T05:22:44.092Z,1.50
2019-02-12T05:25:13.193Z,1.60
2019-02-12T05:27:41.685Z,1.60
2019-02-12T05:30:14.774Z,1.60
2019-02-12T05:32:43.335Z,1.60
2019-02-12T05:35:12.091Z,1.60
2019-02-12T05:37:40.645Z,1.60
2019-02-12T05:40:10.643Z,1.50
2019-02-12T05:42:40.644Z,1.60
2019-02-12T05:45:13.971Z,1.50
2019-02-12T05:47:42.448Z,1.50
2019-02-12T05:50:15.514Z,1.50
2019-02-12T05:52:53.323Z,1.50
2019-02-12T05:55:14.221Z,1.60
2019-02-12T05:57:42.747Z,1.50
2019-02-12T06:00:18.314Z,1.60
2019-02-12T06:02:46.769Z,1.60
2019-02-12T06:05:31.222Z,1.60
2019-02-12T06:08:00.598Z,1.60
2019-02-12T06:10:29.108Z,1.50
2019-02-12T06:12:57.663Z,1.50
2019-02-12T06:15:26.129Z,1.50
2019-02-12T06:17:54.669Z,1.40
2019-02-12T06:20:23.136Z,1.30
2019-02-12T06:22:51.611Z,1.40
2019-02-12T06:25:20.205Z,1.40
2019-02-12T06:27:48.735Z,1.40
2019-02-12T06:30:17.226Z,1.40
2019-02-12T06:32:45.707Z,1.50
2019-02-12T06:35:14.165Z,1.60
2019-02-12T06:37:42.693Z,1.60
2019-02-12T06:40:11.621Z,1.60
2019-02-12T06:42:40.193Z,1.60
2019-02-12T06:45:13.499Z,1.60
2019-02-12T06:47:42.068Z,1.60
2019-02-12T06:50:12.679Z,1.70
2019-02-12T06:52:41.156Z,1.70
2019-02-12T06:55:11.364Z,1.70
2019-02-12T06:57:39.814Z,1.60
2019-02-12T07:00:13.513Z,1.70
2019-02-12T07:03:13.911Z,1.70
2019-02-12T07:06:03.368Z,1.60
2019-02-12T07:08:44.001Z,1.60
2019-02-12T07:11:36.415Z,1.60
2019-02-12T07:14:24.536Z,1.60
2019-02-12T07:17:13.624Z,1.60
2019-02-12T07:19:56.882Z,1.60
2019-02-12T07:22:54.025Z,1.70
2019-02-12T07:25:43.468Z,1.70
2019-02-12T07:28:17.695Z,1.70
2019-02-12T07:31:19.551Z,1.70
2019-02-12T07:34:06.121Z,1.70
2019-02-12T07:36:52.733Z,1.80
2019-02-12T07:39:33.144Z,1.90
2019-02-12T07:42:26.888Z,1.90
2019-02-12T07:45:00.369Z,1.90
2019-02-12T07:47:50.152Z,2.00
2019-02-12T07:50:27.449Z,2.10
2019-02-12T07:53:01.996Z,2.10
2019-02-12T07:55:48.478Z,2.10
2019-02-12T07:58:39.540Z,2.20
2019-02-12T08:01:27.417Z,2.20
2019-02-12T08:04:32.800Z,2.20
2019-02-12T08:07:07.045Z,2.20
2019-02-12T08:10:07.369Z,2.20
2019-02-12T08:12:56.939Z,2.30
2019-02-12T08:15:31.109Z,2.30
2019-02-12T08:18:20.671Z,2.30
2019-02-12T08:21:01.442Z,2.20
2019-02-12T08:24:01.549Z,2.30
2019-02-12T08:26:54.209Z,2.30
2019-02-12T08:29:26.016Z,2.20
2019-02-12T08:31:57.868Z,2.30
2019-02-12T08:34:45.029Z,2.30
2019-02-12T08:37:19.684Z,2.30
2019-02-12T08:40:16.676Z,2.40
2019-02-12T08:42:51.287Z,2.40
2019-02-12T08:45:39.481Z,2.30
2019-02-12T08:48:35.090Z,2.40
2019-02-12T08:51:12.386Z,2.40
2019-02-12T08:53:50.571Z,2.30
2019-02-12T08:56:38.001Z,2.40
2019-02-12T08:59:09.553Z,2.40
2019-02-12T09:01:50.255Z,2.40
2019-02-12T09:04:36.811Z,2.40
2019-02-12T09:07:17.265Z,2.40
2019-02-12T09:10:12.324Z,2.50
2019-02-12T09:12:52.250Z,2.50
2019-02-12T09:15:49.365Z,2.50
2019-02-12T09:18:33.078Z,2.60
2019-02-12T09:21:16.608Z,2.60
2019-02-12T09:23:59.526Z,2.70
2019-02-12T10:01:53.024Z,3.40
2019-02-12T10:04:44.977Z,3.40
2019-02-12T10:07:28.294Z,3.40
2019-02-12T10:10:11.956Z,3.40
2019-02-12T10:12:58.628Z,3.40
2019-02-12T10:15:42.188Z,3.40
2019-02-12T10:18:19.971Z,3.40
2019-02-12T10:21:09.094Z,3.50
2019-02-12T10:24:02.980Z,3.60
2019-02-12T10:26:43.273Z,3.50
2019-02-12T10:29:17.673Z,3.60
2019-02-12T10:31:45.138Z,3.70
2019-02-12T10:34:13.769Z,3.90
2019-02-12T10:36:42.409Z,3.90
2019-02-12T10:39:11.298Z,4.00
2019-02-12T10:41:39.833Z,3.90
2019-02-12T10:44:08.594Z,3.90
2019-02-12T10:46:37.227Z,4.10
2019-02-12T10:49:05.718Z,4.10
2019-02-12T10:51:34.222Z,4.20
2019-02-12T10:54:02.749Z,4.20
2019-02-12T10:56:31.210Z,4.20
2019-02-12T10:58:59.701Z,4.20
2019-02-12T11:01:28.174Z,4.40
2019-02-12T11:03:56.864Z,4.40
2019-02-12T11:06:25.371Z,4.40
2019-02-12T11:08:53.980Z,4.40
2019-02-12T11:11:22.512Z,4.50
2019-02-12T11:13:51.033Z,4.60
2019-02-12T11:16:19.505Z,4.70
2019-02-12T11:18:48.114Z,4.80
2019-02-12T11:21:16.703Z,4.90
2019-02-12T11:23:45.255Z,4.90
2019-02-12T11:26:13.741Z,5.00
2019-02-12T11:28:42.314Z,5.10
2019-02-12T11:31:12.374Z,5.10
2019-02-12T11:33:40.849Z,5.10
2019-02-12T11:36:09.436Z,5.20
2019-02-12T11:38:37.916Z,5.30
2019-02-12T11:41:06.462Z,5.70
2019-02-12T11:43:35.037Z,6.20
2019-02-12T11:46:03.931Z,6.80
2019-02-12T11:48:32.548Z,6.40
2019-02-12T11:51:01.040Z,5.90
2019-02-12T11:53:29.557Z,6.00
2019-02-12T11:55:58.076Z,6.00
2019-02-12T11:58:26.637Z,6.20
2019-02-12T12:00:56.753Z,6.60
2019-02-12T12:03:25.338Z,7.00
2019-02-12T12:05:53.917Z,7.30
2019-02-12T12:08:23.912Z,7.30
2019-02-12T12:10:52.364Z,7.10
2019-02-12T12:13:20.861Z,6.90
2019-02-12T12:15:49.523Z,7.10
2019-02-12T12:18:18.115Z,6.90
2019-02-12T12:20:46.606Z,6.90
2019-02-12T12:23:15.068Z,7.40
2019-02-12T12:25:43.631Z,7.90
2019-02-12T12:28:12.194Z,7.50
2019-02-12T12:30:40.656Z,7.70
2019-02-12T12:33:09.596Z,7.60
2019-02-12T12:35:38.160Z,7.60
2019-02-12T12:38:06.649Z,7.70
2019-02-12T12:40:35.170Z,8.20
2019-02-12T12:43:04.501Z,8.10
2019-02-12T12:45:33.462Z,8.20
2019-02-12T12:48:01.969Z,8.30
2019-02-12T12:50:30.455Z,8.00
2019-02-12T12:52:59.004Z,7.90
2019-02-12T12:55:27.486Z,7.90
2019-02-12T12:57:57.267Z,7.90
2019-02-12T13:00:26.052Z,8.00
2019-02-12T13:02:54.581Z,8.00
2019-02-12T13:05:23.126Z,8.10
2019-02-12T13:07:51.768Z,8.00
2019-02-12T13:10:20.231Z,8.10
2019-02-12T13:12:48.734Z,8.00
2019-02-12T13:15:17.206Z,8.10
2019-02-12T13:17:49.463Z,8.20
2019-02-12T13:20:22.269Z,8.30
2019-02-12T13:22:50.814Z,8.40
2019-02-12T13:25:19.341Z,8.40
2019-02-12T13:27:47.824Z,8.50
2019-02-12T13:30:18.604Z,8.60
2019-02-12T13:32:48.133Z,8.60
2019-02-12T13:35:17.159Z,8.50
2019-02-12T13:37:49.295Z,8.50
2019-02-12T13:40:18.089Z,8.50
2019-02-12T13:42:50.249Z,8.50
2019-02-12T13:45:18.842Z,8.60
2019-02-12T13:47:47.384Z,8.70
2019-02-12T13:50:15.950Z,8.80
2019-02-12T13:52:44.405Z,8.70
2019-02-12T13:55:17.378Z,8.70
2019-02-12T13:57:43.214Z,8.80
2019-02-12T14:00:15.169Z,8.90
2019-02-12T14:02:43.684Z,8.90
2019-02-12T14:05:17.837Z,8.70
2019-02-12T14:07:46.407Z,8.70
2019-02-12T14:10:15.068Z,8.80
2019-02-12T14:12:43.668Z,9.00
2019-02-12T14:15:14.056Z,9.00
2019-02-12T14:17:42.621Z,9.10
2019-02-12T14:20:15.085Z,9.10
2019-02-12T14:22:43.737Z,9.20
2019-02-12T14:25:13.666Z,9.10
2019-02-12T14:27:42.182Z,9.10
2019-02-12T14:30:16.841Z,8.90
2019-02-12T14:32:45.381Z,9.00
2019-02-12T14:35:14.026Z,9.00
2019-02-12T14:37:42.625Z,9.00
2019-02-12T14:40:16.067Z,9.10
2019-02-12T14:42:44.574Z,9.20
2019-02-12T14:45:19.830Z,9.20
2019-02-12T14:47:48.418Z,9.20
2019-02-12T14:50:19.177Z,9.00
2019-02-12T14:52:47.789Z,8.90
2019-02-12T14:55:16.308Z,8.80
2019-02-12T14:57:44.805Z,8.80
2019-02-12T15:00:16.421Z,8.70
2019-02-12T15:02:44.964Z,8.80
2019-02-12T15:05:13.600Z,8.80
2019-02-12T15:07:42.132Z,8.70
2019-02-12T15:10:13.137Z,8.60
2019-02-12T15:12:41.620Z,8.60
2019-02-12T15:15:11.067Z,8.60
2019-02-12T15:17:39.636Z,8.60
2019-02-12T15:20:10.425Z,8.50
2019-02-12T15:22:38.912Z,8.50
2019-02-12T15:25:10.176Z,8.40
2019-02-12T15:27:38.680Z,8.40
2019-02-12T15:30:13.119Z,8.30
2019-02-12T15:32:41.673Z,8.30
2019-02-12T15:35:11.366Z,8.20
2019-02-12T15:37:42.552Z,8.20
2019-02-12T15:40:21.181Z,8.20
2019-02-12T15:42:49.720Z,8.20
2019-02-12T15:45:19.881Z,8.10
2019-02-12T15:47:48.465Z,8.10
2019-02-12T15:50:17.089Z,8.10
2019-02-12T15:52:45.608Z,8.10
2019-02-12T15:55:14.223Z,8.00
2019-02-12T15:57:45.278Z,8.00
2019-02-12T16:00:16.109Z,7.90
2019-02-12T16:02:45.601Z,7.80
2019-02-12T16:05:14.364Z,7.80
2019-02-12T16:07:44.684Z,7.80
2019-02-12T16:10:16.981Z,7.70
2019-02-12T16:12:46.614Z,7.60
2019-02-12T16:15:21.108Z,7.60
2019-02-12T16:17:48.699Z,7.50
2019-02-12T16:20:17.248Z,7.50
2019-02-12T16:22:45.769Z,7.50
2019-02-12T16:25:15.438Z,7.40
2019-02-12T16:27:44.180Z,7.40
2019-02-12T16:30:17.827Z,7.30
2019-02-12T16:32:46.380Z,7.30
2019-02-12T16:35:18.329Z,7.20
2019-02-12T16:37:47.016Z,7.20
2019-02-12T16:40:17.194Z,7.10
2019-02-12T16:42:45.732Z,7.10
2019-02-12T16:45:35.317Z,7.00
2019-02-12T16:48:03.853Z,7.00
2019-02-12T16:50:32.388Z,7.00
2019-02-12T16:53:00.877Z,6.90
2019-02-12T16:55:29.404Z,6.90
2019-02-12T16:57:57.896Z,6.90
2019-02-12T17:00:26.470Z,6.90
2019-02-12T17:02:54.953Z,6.80
2019-02-12T17:05:23.528Z,6.80
2019-02-12T17:07:52.020Z,6.80
2019-02-12T17:10:20.595Z,6.70
2019-02-12T17:12:49.172Z,6.70
2019-02-12T17:15:17.657Z,6.60
2019-02-12T17:17:46.121Z,6.60
2019-02-12T17:20:22.333Z,6.60
2019-02-12T17:22:50.898Z,6.60
2019-02-12T17:25:19.369Z,6.50
2019-02-12T17:27:48.141Z,6.50
2019-02-12T17:30:17.945Z,6.40
2019-02-12T17:32:47.976Z,6.40
2019-02-12T17:35:16.811Z,6.40
2019-02-12T17:37:45.400Z,6.40
2019-02-12T17:40:19.769Z,6.30
2019-02-12T17:42:48.232Z,6.30
2019-02-12T17:45:20.973Z,6.30
2019-02-12T17:47:49.573Z,6.30
2019-02-12T17:50:18.213Z,6.20
2019-02-12T17:52:46.677Z,6.20
2019-02-12T17:55:15.198Z,6.20
2019-02-12T17:57:43.730Z,6.20
2019-02-12T18:00:20.741Z,6.20
2019-02-12T18:02:49.238Z,6.10
2019-02-12T18:05:17.781Z,6.10
2019-02-12T18:07:46.322Z,6.10
2019-02-12T18:10:14.873Z,6.10
2019-02-12T18:12:43.330Z,6.00
2019-02-12T18:15:15.039Z,6.00
2019-02-12T18:17:43.609Z,6.00
2019-02-12T18:20:16.600Z,6.00
2019-02-12T18:22:45.120Z,6.00
2019-02-12T18:25:13.732Z,6.10
2019-02-12T18:27:42.199Z,6.10
2019-02-12T18:30:15.649Z,6.10
2019-02-12T18:32:44.177Z,6.10
2019-02-12T18:35:12.861Z,6.00
2019-02-12T18:37:41.316Z,6.10
2019-02-12T18:40:12.398Z,6.00
2019-02-12T18:42:40.969Z,6.00
2019-02-12T18:45:18.229Z,6.00
2019-02-12T18:47:46.901Z,6.00
2019-02-12T18:50:15.433Z,5.90
2019-02-12T18:52:44.029Z,5.90
2019-02-12T18:55:14.507Z,6.00
2019-02-12T18:57:43.029Z,5.90
2019-02-12T19:00:14.145Z,5.90
2019-02-12T19:02:42.755Z,5.90
2019-02-12T19:05:11.563Z,5.80
2019-02-12T19:07:40.110Z,5.80
2019-02-12T19:10:13.999Z,5.80
2019-02-12T19:12:46.586Z,5.70
2019-02-12T19:15:19.436Z,5.90
2019-02-12T19:17:52.489Z,5.80
2019-02-12T19:20:22.632Z,5.70
2019-02-12T19:22:52.841Z,5.60
2019-02-12T19:25:22.303Z,5.50
2019-02-12T19:27:51.065Z,5.50
2019-02-12T19:30:19.585Z,5.50
2019-02-12T19:32:48.182Z,5.40
2019-02-12T19:35:19.606Z,5.40
2019-02-12T19:37:48.137Z,5.30
2019-02-12T19:40:16.792Z,5.40
2019-02-12T19:42:45.334Z,5.40
2019-02-12T19:45:15.542Z,5.30
2019-02-12T19:47:44.054Z,5.20
2019-02-12T19:50:12.753Z,5.20
2019-02-12T19:52:41.300Z,5.10
2019-02-12T19:55:10.644Z,5.10
2019-02-12T19:57:39.251Z,5.10
2019-02-12T20:00:11.960Z,5.10
2019-02-12T20:02:40.511Z,5.20
2019-02-12T20:05:11.072Z,5.10
2019-02-12T20:07:39.554Z,5.10
2019-02-12T20:10:10.180Z,5.20
2019-02-12T20:12:38.745Z,5.10
2019-02-12T20:15:10.271Z,5.20
2019-02-12T20:17:38.871Z,5.20
2019-02-12T20:20:09.901Z,5.20
2019-02-12T20:22:38.394Z,5.20
2019-02-12T20:25:09.290Z,5.20
2019-02-12T20:27:37.889Z,5.20
2019-02-12T20:30:12.746Z,5.10
2019-02-12T20:32:41.328Z,5.10
2019-02-12T20:35:12.495Z,5.10
2019-02-12T20:37:41.077Z,5.10
2019-02-12T20:40:14.218Z,5.10
2019-02-12T20:42:42.781Z,5.10
2019-02-12T20:45:18.552Z,5.10
2019-02-12T20:47:49.901Z,5.10
2019-02-12T20:50:20.148Z,5.10
2019-02-12T20:52:48.686Z,5.00
2019-02-12T20:55:17.332Z,5.00
2019-02-12T20:57:45.817Z,5.00
2019-02-12T21:00:22.009Z,5.00
2019-02-12T21:02:50.609Z,5.00
2019-02-12T21:05:19.257Z,5.00
2019-02-12T21:07:47.973Z,4.90
2019-02-12T21:10:24.372Z,4.90
2019-02-12T21:12:53.249Z,4.90
2019-02-12T21:15:24.102Z,4.80
2019-02-12T21:17:52.648Z,4.80
2019-02-12T21:20:21.153Z,4.80
2019-02-12T21:22:49.731Z,4.80
2019-02-12T21:25:18.219Z,4.80
2019-02-12T21:27:46.830Z,4.80
2019-02-12T21:30:18.210Z,4.70
2019-02-12T21:32:48.220Z,4.80
2019-02-12T21:35:16.728Z,4.70
2019-02-12T21:37:45.348Z,4.70
2019-02-12T21:40:16.410Z,4.70
2019-02-12T21:42:46.807Z,4.60
2019-02-12T21:45:15.380Z,4.60
2019-02-12T21:47:43.917Z,4.60
2019-02-12T21:50:12.835Z,4.60
2019-02-12T21:52:41.280Z,4.60
2019-02-12T21:55:12.506Z,4.60
2019-02-12T21:57:41.084Z,4.50
2019-02-12T22:00:19.745Z,4.50
2019-02-12T22:02:48.216Z,4.50
2019-02-12T22:05:17.635Z,4.50
2019-02-12T22:07:46.318Z,4.50
2019-02-12T22:10:21.035Z,4.50
2019-02-12T22:12:49.641Z,4.50
2019-02-12T22:15:18.203Z,4.50
2019-02-12T22:17:46.749Z,4.50
2019-02-12T22:20:23.066Z,4.50
2019-02-12T22:22:51.531Z,4.50
2019-02-12T22:25:20.114Z,4.50
2019-02-12T22:27:48.761Z,4.50
2019-02-12T22:30:19.585Z,4.40
2019-02-12T22:32:48.181Z,4.40
2019-02-12T22:35:16.709Z,4.40
2019-02-12T22:37:45.257Z,4.40
2019-02-12T22:40:16.228Z,4.40
2019-02-12T22:42:44.736Z,4.30
2019-02-12T22:45:15.744Z,4.30
2019-02-12T22:47:44.424Z,4.30
2019-02-12T22:50:13.948Z,4.30
2019-02-12T22:52:42.599Z,4.30
2019-02-12T22:55:11.546Z,4.30
2019-02-12T22:57:48.543Z,4.30
2019-02-12T23:00:50.571Z,4.30
2019-02-12T23:03:20.476Z,4.20
2019-02-12T23:05:49.034Z,4.20
2019-02-12T23:08:17.596Z,4.20
2019-02-12T23:10:46.236Z,4.10
2019-02-12T23:13:14.886Z,4.10
2019-02-12T23:15:46.276Z,4.10
2019-02-12T23:18:14.788Z,4.10
2019-02-12T23:20:43.380Z,4.10
2019-02-12T23:23:11.873Z,4.10
2019-02-12T23:25:40.385Z,4.10
2019-02-12T23:28:08.923Z,4.10
2019-02-12T23:30:37.389Z,4.10
2019-02-12T23:33:05.885Z,4.10
2019-02-12T23:35:34.340Z,4.10
2019-02-12T23:38:03.265Z,4.10
2019-02-12T23:40:31.879Z,4.10
2019-02-12T23:43:02.052Z,4.00
2019-02-12T23:45:30.606Z,4.00
2019-02-12T23:47:59.325Z,3.90
2019-02-12T23:50:27.886Z,3.90
2019-02-12T23:52:56.496Z,3.90
2019-02-12T23:55:25.073Z,3.90
2019-02-12T23:57:53.574Z,3.90
